Union Aéronautique de la Côte d'Azur

Union Aéronautique de la Côte d'Azur
UACA
Approuvé A.T.O. EASA – N°FR.ATO.0108

UNION des aéroclubs
Cannes “Ailes d’Azur”, Nice “Côte d’Azur”, Grasse “St Exupery”, ACCA “Francis Séverac”

Un cache-pitot se trouve à bord de chaque avion. Pensez à le mettre en place à la fin de chaque vol !

Avant de quitter l'avion, vérifiez que vous n'emportez pas la checklist

Un vol ne s'entreprend qu'avec un pare-brise parfaitement propre, il en va de votre sécurité, et de celle des autres

Après chaque vol, merci de mettre en place les pares-soleil!


Météo à Cannes:
METAR
LFMD 230830Z AUTO VRB02KT CAVOK 29/18 Q1014 NOSIG =

TAF
LFMD 230800Z 2309/2409 VRB02KT CAVOK BECMG 2313/2314 20015G30KT BECMG 2317/2319 VRB03KT PROB30 TEMPO 2322/2401 VRB15KT SHRA FEW070TCU BECMG 2407/2409 26015G30KT =

SR / SS: 04:08 / 19:08 UTC (LFMD 2017-07-23)